createdAt,value
2022-12-23T00:01:04.025Z,100.00
2022-12-23T00:03:35.044Z,96.55
2022-12-23T00:06:11.470Z,99.79
2022-12-23T00:08:41.688Z,95.58
2022-12-23T00:11:15.522Z,94.07
2022-12-23T00:14:04.477Z,95.29
2022-12-23T00:16:37.541Z,98.63
2022-12-23T00:19:08.524Z,94.32
2022-12-23T00:21:38.631Z,99.92
2022-12-23T00:24:09.023Z,98.20
2022-12-23T00:26:39.347Z,96.63
2022-12-23T00:29:10.794Z,98.92
2022-12-23T00:31:41.457Z,98.39
2022-12-23T00:34:13.124Z,100.00
2022-12-23T00:36:43.056Z,97.51
2022-12-23T00:39:31.531Z,100.00
2022-12-23T00:42:19.192Z,96.74
2022-12-23T00:44:51.258Z,100.00
2022-12-23T00:47:38.714Z,96.71
2022-12-23T00:50:11.345Z,95.25
2022-12-23T00:52:42.356Z,96.59
2022-12-23T00:55:12.736Z,100.00
2022-12-23T00:57:43.865Z,96.68
2022-12-23T01:00:16.914Z,96.93
2022-12-23T01:03:04.501Z,94.93
2022-12-23T01:05:40.714Z,96.40
2022-12-23T01:08:12.837Z,98.33
2022-12-23T01:10:43.240Z,95.24
2022-12-23T01:13:13.105Z,96.08
2022-12-23T01:15:44.741Z,96.41
2022-12-23T01:18:14.787Z,94.15
2022-12-23T01:20:45.262Z,94.89
2022-12-23T01:23:14.991Z,97.07
2022-12-23T01:25:44.961Z,93.31
2022-12-23T01:28:15.797Z,99.59
2022-12-23T01:30:47.563Z,96.35
2022-12-23T01:33:17.885Z,100.00
2022-12-23T01:35:47.801Z,97.97
2022-12-23T01:38:18.011Z,100.00
2022-12-23T01:40:47.806Z,96.34
2022-12-23T01:43:17.589Z,91.59
2022-12-23T01:45:49.667Z,93.98
2022-12-23T01:48:23.242Z,96.51
2022-12-23T01:50:57.168Z,96.33
2022-12-23T01:53:28.620Z,93.74
2022-12-23T01:56:01.199Z,92.52
2022-12-23T01:58:34.636Z,97.93
2022-12-23T02:01:24.268Z,95.97
2022-12-23T02:03:57.234Z,92.07
2022-12-23T02:06:47.551Z,96.05
2022-12-23T02:09:20.034Z,93.82
2022-12-23T02:12:21.796Z,97.14
2022-12-23T02:15:22.076Z,93.88
2022-12-23T02:18:07.911Z,94.30
2022-12-23T02:21:13.727Z,92.20
2022-12-23T02:24:35.730Z,93.00
2022-12-23T02:27:14.725Z,95.25
2022-12-23T02:30:22.591Z,95.98
2022-12-23T02:33:05.221Z,98.66
2022-12-23T02:35:44.085Z,93.90
2022-12-23T02:38:18.237Z,98.15
2022-12-23T02:40:56.029Z,100.00
2022-12-23T02:43:31.961Z,94.01
2022-12-23T02:46:05.361Z,91.95
2022-12-23T02:48:40.735Z,96.70
2022-12-23T02:51:49.679Z,96.06
2022-12-23T02:54:23.143Z,94.08
2022-12-23T02:56:55.591Z,94.65
2022-12-23T02:59:28.183Z,95.89
2022-12-23T03:01:58.958Z,92.65
2022-12-23T03:04:30.519Z,100.00
2022-12-23T03:07:07.181Z,97.96
2022-12-23T03:09:46.174Z,100.00
2022-12-23T03:12:25.418Z,97.42
2022-12-23T03:15:12.493Z,96.98
2022-12-23T03:17:53.920Z,94.10
2022-12-23T03:20:29.354Z,97.00
2022-12-23T03:23:03.922Z,98.81
2022-12-23T03:25:36.216Z,93.58
2022-12-23T03:28:11.665Z,94.88
2022-12-23T03:30:44.975Z,97.39
2022-12-23T03:33:18.254Z,95.08
2022-12-23T03:35:52.875Z,95.23
2022-12-23T03:38:25.138Z,97.48
2022-12-23T03:41:00.123Z,99.09
2022-12-23T03:43:32.425Z,95.50
2022-12-23T03:46:07.234Z,96.25
2022-12-23T03:48:41.005Z,96.49
2022-12-23T03:51:14.719Z,94.96
2022-12-23T03:53:49.111Z,96.22
2022-12-23T03:56:24.090Z,98.30
2022-12-23T03:58:57.935Z,99.67
2022-12-23T04:01:34.273Z,95.18
2022-12-23T04:04:07.738Z,94.42
2022-12-23T04:06:44.055Z,98.29
2022-12-23T04:09:21.584Z,95.83
2022-12-23T04:11:53.423Z,98.00
2022-12-23T04:14:25.003Z,98.80
2022-12-23T04:16:58.768Z,99.12
2022-12-23T04:19:29.286Z,96.57
2022-12-23T04:22:01.215Z,93.95
2022-12-23T04:24:31.494Z,98.58
2022-12-23T04:27:01.799Z,100.00
2022-12-23T04:29:31.533Z,100.00
2022-12-23T04:32:01.484Z,100.00
2022-12-23T04:34:31.833Z,100.00
2022-12-23T04:37:03.880Z,100.00
2022-12-23T04:39:34.134Z,100.00
2022-12-23T04:42:04.070Z,98.37
2022-12-23T04:44:34.929Z,100.00
2022-12-23T04:47:04.871Z,100.00
2022-12-23T04:49:35.417Z,97.49
2022-12-23T04:52:07.064Z,100.00
2022-12-23T04:54:40.607Z,100.00
2022-12-23T04:57:16.821Z,100.00
2022-12-23T04:59:47.224Z,100.00
2022-12-23T05:02:17.114Z,100.00
2022-12-23T05:04:47.528Z,100.00
2022-12-23T05:07:19.113Z,100.00
2022-12-23T05:09:49.609Z,100.00
2022-12-23T05:12:19.924Z,97.06
2022-12-23T05:14:50.712Z,96.29
2022-12-23T05:17:20.574Z,96.31
2022-12-23T05:19:51.464Z,95.32
2022-12-23T05:22:22.925Z,96.89
2022-12-23T05:24:52.881Z,95.41
2022-12-23T05:27:23.049Z,93.77
2022-12-23T05:29:53.071Z,99.58
2022-12-23T05:32:23.385Z,97.88
2022-12-23T05:34:53.465Z,94.62
2022-12-23T05:37:24.791Z,97.83
2022-12-23T05:39:54.793Z,96.00
2022-12-23T05:42:25.496Z,98.43
2022-12-23T05:44:55.758Z,97.65
2022-12-23T05:47:25.784Z,94.63
2022-12-23T05:49:55.422Z,96.44
2022-12-23T05:52:26.696Z,100.00
2022-12-23T05:54:56.961Z,100.00
2022-12-23T05:57:26.956Z,97.29
2022-12-23T05:59:57.005Z,95.63
2022-12-23T06:02:27.473Z,95.46
2022-12-23T06:04:57.855Z,95.63
2022-12-23T06:07:29.070Z,96.46
2022-12-23T06:09:59.394Z,98.49
2022-12-23T06:12:30.374Z,98.12
2022-12-23T06:15:03.014Z,96.30
2022-12-23T06:17:34.029Z,95.79
2022-12-23T06:20:03.920Z,100.00
2022-12-23T06:22:36.650Z,98.73
2022-12-23T06:25:07.148Z,98.64
2022-12-23T06:27:37.124Z,98.44
2022-12-23T06:30:08.294Z,94.35
2022-12-23T06:32:39.068Z,97.50
2022-12-23T06:35:10.575Z,98.61
2022-12-23T06:37:42.600Z,92.36
2022-12-23T06:40:14.694Z,94.70
2022-12-23T06:42:45.384Z,100.00
2022-12-23T06:45:16.018Z,97.90
2022-12-23T06:47:47.756Z,99.51
2022-12-23T06:50:17.882Z,97.02
2022-12-23T06:52:50.798Z,97.73
2022-12-23T06:55:20.518Z,93.63
2022-12-23T06:57:50.917Z,96.76
2022-12-23T07:00:21.869Z,91.60
2022-12-23T07:02:51.801Z,94.18
2022-12-23T07:05:23.148Z,90.49
2022-12-23T07:07:55.049Z,98.65
2022-12-23T07:10:25.080Z,93.41
2022-12-23T07:12:54.984Z,96.30
2022-12-23T07:15:24.926Z,97.36
2022-12-23T07:17:56.154Z,93.38
2022-12-23T07:20:26.277Z,93.66
2022-12-23T07:22:58.860Z,93.69
2022-12-23T07:25:28.698Z,93.81
2022-12-23T07:27:59.015Z,96.16
2022-12-23T07:30:29.342Z,94.48
2022-12-23T07:32:58.630Z,93.72
2022-12-23T07:35:28.612Z,94.86
2022-12-23T07:37:59.757Z,94.30
2022-12-23T07:40:30.035Z,96.23
2022-12-23T07:43:01.006Z,92.28
2022-12-23T07:45:31.261Z,92.89
2022-12-23T07:48:04.271Z,95.15
2022-12-23T07:50:34.137Z,95.80
2022-12-23T07:53:05.149Z,97.01
2022-12-23T07:55:35.096Z,96.80
2022-12-23T07:58:05.741Z,95.64
2022-12-23T08:00:35.638Z,93.98
2022-12-23T08:03:06.189Z,97.52
2022-12-23T08:05:35.984Z,96.49
2022-12-23T08:08:07.528Z,94.54
2022-12-23T08:10:40.297Z,92.88
2022-12-23T08:13:14.602Z,94.62
2022-12-23T08:15:44.693Z,94.87
2022-12-23T08:18:15.242Z,95.93
2022-12-23T08:20:44.996Z,94.01
2022-12-23T08:23:20.009Z,94.48
2022-12-23T08:26:01.763Z,93.69
2022-12-23T08:28:32.615Z,94.58
2022-12-23T08:31:11.322Z,93.01
2022-12-23T08:33:45.135Z,94.17
2022-12-23T08:36:22.810Z,93.68
2022-12-23T08:38:56.899Z,95.90
2022-12-23T08:41:29.070Z,96.31
2022-12-23T08:43:59.033Z,95.49
2022-12-23T08:46:29.771Z,95.89
2022-12-23T08:48:59.937Z,94.17
2022-12-23T08:51:30.723Z,97.28
2022-12-23T08:54:02.879Z,95.56
2022-12-23T08:56:36.393Z,96.04
2022-12-23T08:59:07.294Z,97.56
2022-12-23T09:01:37.645Z,100.00
2022-12-23T09:04:08.481Z,96.16
2022-12-23T09:06:41.835Z,95.63
2022-12-23T09:09:15.528Z,94.77
2022-12-23T09:11:45.315Z,94.42
2022-12-23T09:14:15.600Z,95.19
2022-12-23T09:16:45.628Z,94.63
2022-12-23T09:19:15.524Z,96.24
2022-12-23T09:21:45.460Z,95.86
2022-12-23T09:24:17.620Z,95.51
2022-12-23T09:26:47.742Z,97.24
2022-12-23T09:29:17.983Z,99.68
2022-12-23T09:31:48.202Z,100.00
2022-12-23T09:34:17.782Z,100.00
2022-12-23T09:36:53.393Z,100.00
2022-12-23T09:39:28.232Z,97.38
2022-12-23T09:42:05.284Z,96.10
2022-12-23T09:44:45.152Z,96.18
2022-12-23T09:47:19.546Z,98.12
2022-12-23T09:49:52.813Z,100.00
2022-12-23T09:52:27.094Z,100.00
2022-12-23T09:54:58.447Z,100.00
2022-12-23T09:57:35.873Z,100.00
2022-12-23T10:00:13.115Z,100.00
2022-12-23T10:02:51.998Z,100.00
2022-12-23T10:05:32.718Z,100.00
2022-12-23T10:08:06.089Z,100.00
2022-12-23T10:10:40.592Z,100.00
2022-12-23T10:13:18.239Z,100.00
2022-12-23T10:15:50.548Z,97.16
2022-12-23T10:18:25.216Z,98.04
2022-12-23T10:20:58.771Z,100.00
2022-12-23T10:23:32.233Z,100.00
2022-12-23T10:26:06.289Z,98.46
2022-12-23T10:28:36.155Z,99.56
2022-12-23T10:34:02.802Z,97.26
2022-12-23T10:36:42.276Z,100.00
2022-12-23T10:39:19.361Z,95.84
2022-12-23T10:42:01.320Z,91.55
2022-12-23T10:44:56.228Z,93.92
2022-12-23T10:47:33.206Z,93.96
2022-12-23T10:50:15.598Z,93.90
2022-12-23T10:52:46.925Z,95.28
2022-12-23T10:55:28.548Z,94.42
2022-12-23T10:58:09.176Z,93.82
2022-12-23T11:00:41.737Z,96.64
2022-12-23T11:03:18.972Z,95.22
2022-12-23T11:05:50.876Z,94.21
2022-12-23T11:08:22.091Z,93.97
2022-12-23T11:10:52.362Z,92.70
2022-12-23T11:13:37.330Z,92.52
2022-12-23T11:16:23.536Z,94.00
2022-12-23T11:19:06.230Z,94.82
2022-12-23T11:21:36.669Z,90.17
2022-12-23T11:24:19.425Z,91.88
2022-12-23T11:26:53.071Z,90.98
2022-12-23T11:29:26.842Z,88.81
2022-12-23T11:31:57.391Z,89.83
2022-12-23T11:34:28.565Z,90.66
2022-12-23T11:37:03.585Z,85.54
2022-12-23T11:39:37.913Z,86.81
2022-12-23T11:42:13.356Z,86.86
2022-12-23T11:44:47.776Z,87.80
2022-12-23T11:47:29.374Z,88.26
2022-12-23T11:50:05.836Z,89.09
2022-12-23T11:52:37.280Z,86.45
2022-12-23T11:55:09.279Z,86.33
2022-12-23T11:57:42.647Z,85.81
2022-12-23T12:00:22.578Z,87.68
2022-12-23T12:02:55.287Z,85.11
2022-12-23T12:05:35.705Z,82.42
2022-12-23T12:08:08.964Z,84.68
2022-12-23T12:10:41.914Z,79.85
2022-12-23T12:13:25.998Z,83.29
2022-12-23T12:16:10.424Z,88.50
2022-12-23T12:18:42.051Z,84.45
2022-12-23T12:21:16.239Z,80.24
2022-12-23T12:23:48.923Z,85.69
2022-12-23T12:26:25.661Z,85.27
2022-12-23T12:29:00.734Z,86.51
2022-12-23T12:31:35.750Z,82.67
2022-12-23T12:34:08.629Z,80.03
2022-12-23T12:36:43.542Z,81.32
2022-12-23T12:39:20.030Z,79.99
2022-12-23T12:41:53.519Z,81.96
2022-12-23T12:44:30.303Z,84.01
2022-12-23T12:47:28.132Z,83.00
2022-12-23T12:50:02.395Z,83.71
2022-12-23T12:52:35.585Z,79.29
2022-12-23T12:55:09.009Z,79.07
2022-12-23T12:57:39.533Z,81.16
2022-12-23T13:00:17.193Z,78.97
2022-12-23T13:03:08.120Z,76.95
2022-12-23T13:05:54.949Z,82.58
2022-12-23T13:08:55.810Z,84.50
2022-12-23T13:11:31.894Z,82.04
2022-12-23T13:14:07.629Z,81.87
2022-12-23T13:16:45.814Z,82.96
2022-12-23T13:19:25.821Z,83.33
2022-12-23T13:22:02.338Z,84.64
2022-12-23T13:24:37.822Z,84.49
2022-12-23T13:27:13.013Z,86.51
2022-12-23T13:30:02.862Z,87.05
2022-12-23T13:33:14.953Z,87.13
2022-12-23T13:36:02.959Z,86.09
2022-12-23T13:38:52.351Z,84.71
2022-12-23T13:41:28.882Z,87.86
2022-12-23T13:44:01.198Z,88.63
2022-12-23T13:46:47.770Z,88.97
2022-12-23T13:49:27.130Z,86.51
2022-12-23T13:52:06.275Z,82.26
2022-12-23T13:54:45.528Z,82.50
2022-12-23T13:57:26.578Z,80.71
2022-12-23T14:00:05.950Z,82.14
2022-12-23T14:02:54.349Z,83.88
2022-12-23T14:05:36.628Z,81.71
2022-12-23T14:08:21.782Z,84.72
2022-12-23T14:10:55.583Z,83.91
2022-12-23T14:13:28.853Z,86.49
2022-12-23T14:16:15.638Z,88.03
2022-12-23T14:19:08.513Z,88.93
2022-12-23T14:21:49.141Z,88.58
2022-12-23T14:24:46.575Z,90.17
2022-12-23T14:27:32.961Z,92.80
2022-12-23T14:30:12.330Z,92.59
2022-12-23T14:32:49.623Z,93.14
2022-12-23T14:35:25.005Z,93.18
2022-12-23T14:38:12.991Z,93.34
2022-12-23T14:41:13.776Z,93.53
2022-12-23T14:44:00.078Z,93.24
2022-12-23T14:46:59.897Z,93.78
2022-12-23T14:49:44.842Z,94.08
2022-12-23T14:52:53.019Z,95.18
2022-12-23T14:55:45.272Z,92.45
2022-12-23T14:58:54.138Z,93.16
2022-12-23T15:01:30.693Z,94.65
2022-12-23T15:04:02.112Z,92.94
2022-12-23T15:06:36.784Z,94.50
2022-12-23T15:09:08.699Z,95.60
2022-12-23T15:11:39.028Z,94.59
2022-12-23T15:14:12.763Z,95.24
2022-12-23T15:16:46.981Z,96.21
2022-12-23T15:19:22.350Z,96.49
2022-12-23T15:22:03.212Z,95.31
2022-12-23T15:24:37.875Z,95.68
2022-12-23T15:27:26.654Z,95.36
2022-12-23T15:29:58.485Z,94.68
2022-12-23T15:32:30.393Z,94.97
2022-12-23T15:35:05.232Z,94.45
2022-12-23T15:37:36.428Z,93.10
2022-12-23T15:40:13.194Z,94.87
2022-12-23T15:42:50.460Z,94.06
2022-12-23T15:45:44.273Z,95.17
2022-12-23T15:48:27.663Z,93.25
2022-12-23T15:50:59.439Z,94.27
2022-12-23T15:53:32.608Z,94.99
2022-12-23T15:56:06.389Z,94.42
2022-12-23T15:58:37.999Z,94.99
2022-12-23T16:01:08.628Z,96.26
2022-12-23T16:03:42.082Z,95.99
2022-12-23T16:06:19.827Z,95.96
2022-12-23T16:08:58.630Z,95.41
2022-12-23T16:11:44.191Z,96.66
2022-12-23T16:14:33.575Z,96.43
2022-12-23T16:17:03.772Z,95.80
2022-12-23T16:19:42.994Z,95.90
2022-12-23T16:22:28.336Z,95.42
2022-12-23T16:25:08.351Z,96.98
2022-12-23T16:27:41.144Z,96.03
2022-12-23T16:30:16.607Z,96.89
2022-12-23T16:32:52.817Z,97.78
2022-12-23T16:35:33.817Z,96.81
2022-12-23T16:38:18.625Z,96.98
2022-12-23T16:40:51.182Z,94.72
2022-12-23T16:43:22.508Z,94.11
2022-12-23T16:45:54.673Z,95.59
2022-12-23T16:48:30.341Z,95.44
2022-12-23T16:51:02.924Z,96.02
2022-12-23T16:53:33.035Z,96.57
2022-12-23T16:56:03.114Z,96.45
2022-12-23T16:58:33.053Z,97.32
2022-12-23T17:01:03.924Z,96.33
2022-12-23T17:03:34.644Z,95.37
2022-12-23T17:06:06.376Z,95.84
2022-12-23T17:08:36.051Z,95.71
2022-12-23T17:11:06.486Z,96.91
2022-12-23T17:13:36.674Z,96.95
2022-12-23T17:16:07.749Z,96.61
2022-12-23T17:18:37.859Z,96.05
2022-12-23T17:21:12.588Z,97.64
2022-12-23T17:23:43.479Z,97.78
2022-12-23T17:26:14.560Z,97.56
2022-12-23T17:28:45.107Z,97.59
2022-12-23T17:31:19.389Z,99.98
2022-12-23T17:33:53.983Z,97.63
2022-12-23T17:36:26.181Z,98.54
2022-12-23T17:38:56.476Z,98.72
2022-12-23T17:41:31.748Z,98.37
2022-12-23T17:44:03.218Z,98.22
2022-12-23T17:46:34.010Z,98.20
2022-12-23T17:49:03.940Z,99.04
2022-12-23T17:51:36.220Z,97.53
2022-12-23T17:54:08.344Z,99.43
2022-12-23T17:56:38.588Z,98.59
2022-12-23T17:59:08.683Z,98.31
2022-12-23T18:01:39.590Z,97.87
2022-12-23T18:04:10.171Z,100.00
2022-12-23T18:06:42.693Z,100.00
2022-12-23T18:09:12.662Z,98.49
2022-12-23T18:11:44.936Z,97.87
2022-12-23T18:14:18.603Z,97.57
2022-12-23T18:16:48.450Z,100.00
2022-12-23T18:19:20.358Z,98.88
2022-12-23T18:21:52.315Z,99.58
2022-12-23T18:24:23.882Z,98.52
2022-12-23T18:26:54.606Z,98.78
2022-12-23T18:29:24.573Z,99.94
2022-12-23T18:31:54.862Z,99.46
2022-12-23T18:34:25.390Z,99.85
2022-12-23T18:36:56.416Z,98.13
2022-12-23T18:39:26.234Z,100.00
2022-12-23T18:41:56.697Z,99.16
2022-12-23T18:44:27.426Z,100.00
2022-12-23T18:46:57.727Z,100.00
2022-12-23T18:49:27.580Z,98.18
2022-12-23T18:51:59.466Z,98.90
2022-12-23T18:54:29.489Z,99.76
2022-12-23T18:57:02.641Z,100.00
2022-12-23T18:59:35.090Z,100.00
2022-12-23T19:02:06.733Z,99.84
2022-12-23T19:04:37.286Z,98.51
2022-12-23T19:07:10.872Z,98.78
2022-12-23T19:09:41.789Z,98.64
2022-12-23T19:12:12.188Z,99.77
2022-12-23T19:14:42.958Z,100.00
2022-12-23T19:17:13.007Z,100.00
2022-12-23T19:19:43.196Z,100.00
2022-12-23T19:22:19.451Z,99.36
2022-12-23T19:25:04.708Z,100.00
2022-12-23T19:27:35.989Z,100.00
2022-12-23T19:30:07.596Z,100.00
2022-12-23T19:32:37.268Z,100.00
2022-12-23T19:35:08.847Z,100.00
2022-12-23T19:37:40.149Z,100.00
2022-12-23T19:40:11.840Z,100.00
2022-12-23T19:42:43.144Z,100.00
2022-12-23T19:45:13.341Z,100.00
2022-12-23T19:47:43.386Z,100.00
2022-12-23T19:50:14.305Z,100.00
2022-12-23T19:52:46.439Z,100.00
2022-12-23T19:55:16.648Z,100.00
2022-12-23T19:57:46.544Z,100.00
2022-12-23T20:00:17.263Z,100.00
2022-12-23T20:02:51.422Z,100.00
2022-12-23T20:05:25.818Z,100.00
2022-12-23T20:07:57.979Z,100.00
2022-12-23T20:10:27.964Z,100.00
2022-12-23T20:12:58.615Z,100.00
2022-12-23T20:15:29.089Z,100.00
2022-12-23T20:18:00.311Z,100.00
2022-12-23T20:20:30.529Z,100.00
2022-12-23T20:23:02.716Z,100.00
2022-12-23T20:25:32.917Z,100.00
2022-12-23T20:28:02.584Z,100.00
2022-12-23T20:30:32.554Z,100.00
2022-12-23T20:33:02.810Z,100.00
2022-12-23T20:35:33.806Z,100.00
2022-12-23T20:38:05.869Z,100.00
2022-12-23T20:40:35.953Z,100.00
2022-12-23T20:43:09.137Z,100.00
2022-12-23T20:45:44.401Z,100.00
2022-12-23T20:48:14.764Z,100.00
2022-12-23T20:50:45.787Z,100.00
2022-12-23T20:53:17.694Z,100.00
2022-12-23T20:55:48.214Z,100.00
2022-12-23T20:58:35.646Z,100.00
2022-12-23T21:01:12.908Z,100.00
2022-12-23T21:03:43.525Z,100.00
2022-12-23T21:06:13.859Z,100.00
2022-12-23T21:08:45.712Z,100.00
2022-12-23T21:11:16.132Z,100.00
2022-12-23T21:13:48.376Z,100.00
2022-12-23T21:16:18.764Z,100.00
2022-12-23T21:18:53.289Z,100.00
2022-12-23T21:21:26.910Z,100.00
2022-12-23T21:24:02.408Z,100.00
2022-12-23T21:26:34.207Z,100.00
2022-12-23T21:29:06.531Z,100.00
2022-12-23T21:31:38.277Z,100.00
2022-12-23T21:34:09.998Z,100.00
2022-12-23T21:36:42.265Z,100.00
2022-12-23T21:39:16.823Z,100.00
2022-12-23T21:41:46.486Z,100.00
2022-12-23T21:44:16.614Z,100.00
2022-12-23T21:46:46.648Z,100.00
2022-12-23T21:49:17.072Z,99.32
2022-12-23T21:51:47.194Z,99.91
2022-12-23T21:54:19.367Z,100.00
2022-12-23T21:56:49.847Z,100.00
2022-12-23T21:59:19.916Z,100.00
2022-12-23T22:01:51.058Z,100.00
2022-12-23T22:04:21.474Z,98.93
2022-12-23T22:06:51.790Z,100.00
2022-12-23T22:09:22.924Z,100.00
2022-12-23T22:11:52.389Z,100.00
2022-12-23T22:14:22.659Z,99.79
2022-12-23T22:16:52.750Z,100.00
2022-12-23T22:19:22.822Z,100.00
2022-12-23T22:21:53.548Z,100.00
2022-12-23T22:24:25.344Z,98.05
2022-12-23T22:26:55.642Z,100.00
2022-12-23T22:29:25.818Z,100.00
2022-12-23T22:31:56.031Z,100.00
2022-12-23T22:34:26.268Z,100.00
2022-12-23T22:36:56.373Z,99.72
2022-12-23T22:39:27.969Z,100.00
2022-12-23T22:41:58.508Z,100.00
2022-12-23T22:44:28.596Z,100.00
2022-12-23T22:46:58.805Z,100.00
2022-12-23T22:49:29.637Z,100.00
2022-12-23T22:52:00.121Z,100.00
2022-12-23T22:54:32.997Z,100.00
2022-12-23T22:57:03.529Z,99.96
2022-12-23T22:59:33.942Z,100.00
2022-12-23T23:02:03.679Z,100.00
2022-12-23T23:04:36.116Z,100.00
2022-12-23T23:07:08.326Z,100.00
2022-12-23T23:09:40.574Z,100.00
2022-12-23T23:12:10.768Z,100.00
2022-12-23T23:14:53.986Z,100.00
2022-12-23T23:17:26.395Z,99.83
2022-12-23T23:19:57.320Z,100.00
2022-12-23T23:22:27.308Z,99.96
2022-12-23T23:24:58.819Z,99.99
2022-12-23T23:27:28.507Z,100.00
2022-12-23T23:29:58.432Z,98.92
2022-12-23T23:32:28.458Z,100.00
2022-12-23T23:34:58.769Z,100.00
2022-12-23T23:37:28.829Z,100.00
2022-12-23T23:40:00.261Z,98.58
2022-12-23T23:42:30.394Z,100.00
2022-12-23T23:45:00.455Z,100.00
2022-12-23T23:47:34.952Z,99.75
2022-12-23T23:50:05.718Z,99.15
2022-12-23T23:52:36.378Z,99.93
2022-12-23T23:55:09.869Z,100.00
2022-12-23T23:57:39.848Z,99.49
